Time;durP1;ratioP1;P1;durP2;ratioP2;P2;SDS_P1;SDS_P2;PMS_P1;PMS_P2;Temp;Humidity;BMP_temperature;BMP_pressure;BME280_temperature;BME280_humidity;BME280_pressure;Samples;Min_cycle;Max_cycle;Signal;HPM_P1;HPM_P2
2023/03/27 00:00:41;;;;;;;;;;;19.20;33.30;;;;;;1547337;77;1898;-60
2023/03/27 00:02:42;;;;;;;;;;;19.20;33.30;;;;;;1546400;77;1119;-62
2023/03/27 00:04:44;;;;;;;;;;;19.30;33.40;;;;;;1542812;77;704;-60
2023/03/27 00:06:48;;;;;;;;;;;19.30;33.30;;;;;;1547315;77;1485;-58
2023/03/27 00:08:50;;;;;;;;;;;19.30;33.30;;;;;;1535802;77;805;-59
2023/03/27 00:10:52;;;;;;;;;;;19.30;33.30;;;;;;1537355;77;744;-60
2023/03/27 00:12:54;;;;;;;;;;;19.20;33.20;;;;;;1544441;77;1137;-59
2023/03/27 00:14:56;;;;;;;;;;;19.20;33.30;;;;;;1547349;77;760;-60
2023/03/27 00:16:59;;;;;;;;;;;19.20;33.30;;;;;;1526999;77;783;-58
2023/03/27 00:19:00;;;;;;;;;;;19.30;33.30;;;;;;1542967;77;669;-61
2023/03/27 00:21:03;;;;;;;;;;;19.20;33.10;;;;;;1537187;77;1925;-59
2023/03/27 00:23:05;;;;;;;;;;;19.20;33.20;;;;;;1542592;77;1158;-60
2023/03/27 00:25:07;;;;;;;;;;;19.20;33.20;;;;;;1545143;77;685;-59
2023/03/27 00:27:09;;;;;;;;;;;19.20;33.20;;;;;;1542682;77;724;-60
2023/03/27 00:29:12;;;;;;;;;;;19.20;33.30;;;;;;1532714;77;662;-60
2023/03/27 00:31:14;;;;;;;;;;;19.20;33.30;;;;;;1540979;77;728;-60
2023/03/27 00:33:16;;;;;;;;;;;19.30;33.40;;;;;;1541913;77;1103;-62
2023/03/27 00:35:18;;;;;;;;;;;19.20;33.40;;;;;;1545863;77;1699;-60
2023/03/27 00:37:20;;;;;;;;;;;19.20;33.40;;;;;;1539986;77;677;-62
2023/03/27 00:39:22;;;;;;;;;;;19.20;33.40;;;;;;1542791;77;808;-62
2023/03/27 00:41:24;;;;;;;;;;;19.20;33.30;;;;;;1538795;77;1921;-61
2023/03/27 00:43:27;;;;;;;;;;;19.20;33.40;;;;;;1540454;77;1105;-60
2023/03/27 00:45:30;;;;;;;;;;;19.10;33.40;;;;;;1545999;77;711;-60
2023/03/27 00:47:32;;;;;;;;;;;19.20;33.40;;;;;;1544370;77;756;-62
2023/03/27 00:49:35;;;;;;;;;;;19.10;33.40;;;;;;1546439;77;1607;-59
2023/03/27 00:51:37;;;;;;;;;;;19.20;33.20;;;;;;1538432;77;719;-60
2023/03/27 00:53:38;;;;;;;;;;;19.20;33.30;;;;;;1545052;77;1083;-60
2023/03/27 00:55:41;;;;;;;;;;;19.20;33.30;;;;;;1547562;77;678;-59
2023/03/27 00:57:43;;;;;;;;;;;19.20;33.20;;;;;;1548147;77;682;-59
2023/03/27 00:59:46;;;;;;;;;;;19.20;33.20;;;;;;1542714;77;1926;-58
2023/03/27 01:01:48;;;;;;;;;;;19.30;33.40;;;;;;1538562;77;708;-61
2023/03/27 01:03:50;;;;;;;;;;;19.20;33.10;;;;;;1542668;77;1468;-60
2023/03/27 01:05:52;;;;;;;;;;;19.20;33.10;;;;;;1547841;77;749;-59
2023/03/27 01:07:55;;;;;;;;;;;19.20;33.20;;;;;;1543621;77;720;-60
2023/03/27 01:09:57;;;;;;;;;;;19.20;33.20;;;;;;1533857;77;699;-59
2023/03/27 01:12:17;;;;;;;;;;;19.20;33.20;;;;;;1546235;77;740;-59
2023/03/27 01:14:20;;;;;;;;;;;19.20;33.20;;;;;;1528050;77;765;-59
2023/03/27 01:16:29;;;;;;;;;;;19.20;33.10;;;;;;1533625;77;1491;-58
2023/03/27 01:18:39;;;;;;;;;;;19.30;33.10;;;;;;1542072;77;1737;-60
2023/03/27 01:21:01;;;;;;;;;;;19.20;32.80;;;;;;1540226;77;2153;-61
2023/03/27 01:23:07;;;;;;;;;;;19.20;33.20;;;;;;1547562;75;1157;-60
2023/03/27 01:25:11;;;;;;;;;;;19.10;33.20;;;;;;1535425;77;1939;-59
2023/03/27 01:27:18;;;;;;;;;;;19.10;33.10;;;;;;1546791;77;706;-60
2023/03/27 01:29:27;;;;;;;;;;;19.10;33.10;;;;;;1530523;77;1803;-61
2023/03/27 01:31:43;;;;;;;;;;;19.10;33.20;;;;;;1547396;77;1626;-59
2023/03/27 01:34:05;;;;;;;;;;;19.10;33.10;;;;;;1546062;77;1186;-58
2023/03/27 01:36:08;;;;;;;;;;;19.10;33.10;;;;;;1546707;77;1902;-60
2023/03/27 01:38:21;;;;;;;;;;;19.10;33.20;;;;;;1543962;77;691;-60
2023/03/27 01:40:25;;;;;;;;;;;19.20;33.10;;;;;;1544189;77;1967;-60
2023/03/27 01:42:28;;;;;;;;;;;19.10;33.20;;;;;;1541078;77;1249;-60
2023/03/27 01:44:37;;;;;;;;;;;19.10;33.20;;;;;;1531211;77;1696;-59
2023/03/27 01:46:41;;;;;;;;;;;19.20;33.10;;;;;;1530939;77;697;-60
2023/03/27 01:48:44;;;;;;;;;;;19.10;33.20;;;;;;1528521;77;1819;-58
2023/03/27 01:50:47;;;;;;;;;;;19.20;33.20;;;;;;1535637;77;954;-60
2023/03/27 01:52:56;;;;;;;;;;;19.10;33.20;;;;;;1543929;77;2133;-60
2023/03/27 01:55:02;;;;;;;;;;;19.10;33.20;;;;;;1527465;77;710;-61
2023/03/27 01:57:07;;;;;;;;;;;19.10;33.20;;;;;;1538402;77;1721;-59
2023/03/27 01:59:10;;;;;;;;;;;19.10;33.20;;;;;;1528420;77;1907;-61
2023/03/27 02:01:13;;;;;;;;;;;19.20;33.20;;;;;;1531516;77;1928;-59
2023/03/27 02:03:16;;;;;;;;;;;19.10;33.20;;;;;;1545506;77;1555;-60
2023/03/27 02:05:19;;;;;;;;;;;19.10;33.20;;;;;;1529999;77;732;-58
2023/03/27 02:07:32;;;;;;;;;;;19.10;33.20;;;;;;1533376;77;1676;-60
2023/03/27 02:09:34;;;;;;;;;;;19.20;33.20;;;;;;1531874;77;801;-59
2023/03/27 02:11:37;;;;;;;;;;;19.20;33.20;;;;;;1544310;77;757;-59
2023/03/27 02:13:50;;;;;;;;;;;19.20;33.20;;;;;;1545433;77;2591;-60
2023/03/27 02:15:52;;;;;;;;;;;19.10;33.20;;;;;;1548020;77;1492;-62
2023/03/27 02:18:04;;;;;;;;;;;19.10;33.10;;;;;;1541795;77;798;-60
2023/03/27 02:20:13;;;;;;;;;;;19.10;33.20;;;;;;1533543;77;939;-61
2023/03/27 02:22:14;;;;;;;;;;;19.00;33.10;;;;;;1526926;77;1296;-59
2023/03/27 02:24:16;;;;;;;;;;;19.10;33.20;;;;;;1548466;77;768;-58
2023/03/27 02:26:18;;;;;;;;;;;19.10;33.20;;;;;;1545090;77;649;-60
2023/03/27 02:28:22;;;;;;;;;;;19.10;33.10;;;;;;1533402;77;1492;-58
2023/03/27 02:30:25;;;;;;;;;;;19.10;33.10;;;;;;1532044;77;1926;-60
2023/03/27 02:32:41;;;;;;;;;;;19.10;33.20;;;;;;1535486;77;1176;-60
2023/03/27 02:34:59;;;;;;;;;;;19.10;32.80;;;;;;1538040;77;1823;-58
2023/03/27 02:37:21;;;;;;;;;;;19.20;33.20;;;;;;1535576;77;1781;-58
2023/03/27 02:39:25;;;;;;;;;;;19.20;33.20;;;;;;1539050;77;708;-57
2023/03/27 02:41:29;;;;;;;;;;;19.10;33.20;;;;;;1534162;77;1939;-58
2023/03/27 02:43:35;;;;;;;;;;;19.10;33.30;;;;;;1537697;77;1162;-58
2023/03/27 02:45:47;;;;;;;;;;;19.10;33.30;;;;;;1536620;77;711;-58
2023/03/27 02:47:51;;;;;;;;;;;19.10;33.30;;;;;;1544767;77;1870;-57
2023/03/27 02:49:54;;;;;;;;;;;19.10;33.30;;;;;;1540402;77;1838;-57
2023/03/27 02:52:00;;;;;;;;;;;19.10;33.30;;;;;;1538067;77;1842;-56
2023/03/27 02:54:10;;;;;;;;;;;19.10;33.30;;;;;;1527500;77;1123;-57
2023/03/27 02:56:11;;;;;;;;;;;19.10;33.30;;;;;;1539352;77;1854;-57
2023/03/27 02:58:15;;;;;;;;;;;19.10;33.20;;;;;;1541411;77;703;-59
2023/03/27 03:00:22;;;;;;;;;;;19.10;33.20;;;;;;1542561;77;1808;-57
2023/03/27 03:02:24;;;;;;;;;;;19.10;33.20;;;;;;1534535;77;1688;-58
2023/03/27 03:04:27;;;;;;;;;;;19.10;33.30;;;;;;1527541;77;813;-57
2023/03/27 03:06:29;;;;;;;;;;;19.10;33.40;;;;;;1536544;77;699;-57
2023/03/27 03:08:36;;;;;;;;;;;19.10;33.30;;;;;;1543333;77;810;-58
2023/03/27 03:10:34;;;;;;;;;;;19.00;33.20;;;;;;1544964;77;1786;-59
2023/03/27 03:12:36;;;;;;;;;;;19.10;33.40;;;;;;1527642;77;1142;-58
2023/03/27 03:14:39;;;;;;;;;;;19.10;33.40;;;;;;1538398;77;712;-58
2023/03/27 03:16:40;;;;;;;;;;;19.10;33.40;;;;;;1545132;77;654;-58
2023/03/27 03:18:42;;;;;;;;;;;19.20;33.40;;;;;;1535500;77;760;-57
2023/03/27 03:20:44;;;;;;;;;;;19.10;33.10;;;;;;1542082;77;1925;-58
2023/03/27 03:22:46;;;;;;;;;;;19.00;33.40;;;;;;1547990;77;1570;-57
2023/03/27 03:24:49;;;;;;;;;;;19.00;33.20;;;;;;1547592;77;654;-57
2023/03/27 03:26:51;;;;;;;;;;;19.00;33.50;;;;;;1528550;77;819;-57
2023/03/27 03:28:56;;;;;;;;;;;19.00;33.50;;;;;;1534254;77;746;-57
2023/03/27 03:30:57;;;;;;;;;;;19.00;33.50;;;;;;1530664;77;1702;-60
2023/03/27 03:32:59;;;;;;;;;;;19.00;33.50;;;;;;1536488;77;1178;-58
2023/03/27 03:35:01;;;;;;;;;;;19.00;33.50;;;;;;1541835;77;737;-58
2023/03/27 03:37:03;;;;;;;;;;;19.00;33.50;;;;;;1534898;77;1562;-57
2023/03/27 03:39:06;;;;;;;;;;;19.10;33.60;;;;;;1537696;77;758;-59
2023/03/27 03:41:07;;;;;;;;;;;19.00;33.50;;;;;;1548182;77;1909;-58
2023/03/27 03:43:10;;;;;;;;;;;19.00;33.40;;;;;;1540963;77;1159;-57
2023/03/27 03:45:11;;;;;;;;;;;19.00;33.60;;;;;;1544758;77;762;-59
2023/03/27 03:47:13;;;;;;;;;;;19.00;33.60;;;;;;1546112;77;654;-59
2023/03/27 03:49:15;;;;;;;;;;;19.00;33.60;;;;;;1530879;77;926;-59
2023/03/27 03:51:17;;;;;;;;;;;19.00;33.60;;;;;;1542638;77;1593;-61
2023/03/27 03:53:20;;;;;;;;;;;19.00;33.60;;;;;;1541544;77;1131;-60
2023/03/27 03:55:24;;;;;;;;;;;19.00;33.60;;;;;;1544361;77;743;-58
2023/03/27 03:57:25;;;;;;;;;;;19.00;33.60;;;;;;1533889;77;1675;-58
2023/03/27 03:59:27;;;;;;;;;;;18.90;33.70;;;;;;1532681;77;673;-59
2023/03/27 04:01:29;;;;;;;;;;;19.00;33.70;;;;;;1541326;77;1933;-58
2023/03/27 04:03:31;;;;;;;;;;;19.00;33.70;;;;;;1536109;77;1161;-59
2023/03/27 04:05:33;;;;;;;;;;;19.00;33.70;;;;;;1537912;77;1374;-59
2023/03/27 04:07:35;;;;;;;;;;;18.90;33.80;;;;;;1548062;77;745;-59
2023/03/27 04:09:36;;;;;;;;;;;19.00;33.80;;;;;;1541920;77;776;-61
2023/03/27 04:11:38;;;;;;;;;;;19.00;33.80;;;;;;1538893;77;674;-59
2023/03/27 04:13:41;;;;;;;;;;;18.90;33.70;;;;;;1537981;77;1131;-59
2023/03/27 04:15:43;;;;;;;;;;;18.80;33.90;;;;;;1533537;77;693;-60
2023/03/27 04:17:47;;;;;;;;;;;18.70;33.90;;;;;;1545230;77;609;-59
2023/03/27 04:19:48;;;;;;;;;;;18.80;34.00;;;;;;1534515;77;2536;-58
2023/03/27 04:21:53;;;;;;;;;;;18.70;34.00;;;;;;1547007;77;1923;-60
2023/03/27 04:24:01;;;;;;;;;;;18.70;34.10;;;;;;1539587;77;1779;-59
2023/03/27 04:26:01;;;;;;;;;;;18.70;34.20;;;;;;1530216;77;1659;-59
2023/03/27 04:28:03;;;;;;;;;;;18.70;34.10;;;;;;1534162;77;702;-60
2023/03/27 04:30:12;;;;;;;;;;;18.70;34.20;;;;;;1525514;77;809;-59
2023/03/27 04:32:10;;;;;;;;;;;18.60;34.20;;;;;;1541100;77;1460;-59
2023/03/27 04:34:12;;;;;;;;;;;18.60;34.20;;;;;;1540715;77;1567;-59
2023/03/27 04:36:14;;;;;;;;;;;18.70;34.40;;;;;;1539464;77;799;-60
2023/03/27 04:38:18;;;;;;;;;;;18.70;34.10;;;;;;1534566;77;728;-59
2023/03/27 04:40:20;;;;;;;;;;;18.60;34.20;;;;;;1531516;77;659;-58
2023/03/27 04:42:22;;;;;;;;;;;18.60;34.20;;;;;;1540092;77;1923;-59
2023/03/27 04:44:24;;;;;;;;;;;18.20;34.20;;;;;;1540669;77;951;-58
2023/03/27 04:46:26;;;;;;;;;;;18.40;34.40;;;;;;1532036;77;726;-57
2023/03/27 04:48:28;;;;;;;;;;;18.40;34.50;;;;;;1544534;77;1525;-59
2023/03/27 04:50:30;;;;;;;;;;;18.50;34.50;;;;;;1539939;77;632;-59
2023/03/27 04:52:32;;;;;;;;;;;18.40;34.40;;;;;;1539463;77;1174;-59
2023/03/27 04:54:34;;;;;;;;;;;18.40;34.70;;;;;;1536273;77;771;-59
2023/03/27 04:56:36;;;;;;;;;;;18.30;34.80;;;;;;1542066;77;761;-59
2023/03/27 04:58:39;;;;;;;;;;;18.40;34.30;;;;;;1548860;77;683;-61
2023/03/27 05:00:42;;;;;;;;;;;18.30;34.60;;;;;;1546171;77;682;-59
2023/03/27 05:02:44;;;;;;;;;;;18.40;34.90;;;;;;1545832;77;1923;-58
2023/03/27 05:04:47;;;;;;;;;;;18.40;34.60;;;;;;1536372;77;725;-59
2023/03/27 05:06:49;;;;;;;;;;;18.40;34.40;;;;;;1536090;77;570;-59
2023/03/27 05:08:51;;;;;;;;;;;18.40;34.70;;;;;;1545034;77;926;-59
2023/03/27 05:10:53;;;;;;;;;;;18.50;34.70;;;;;;1542502;77;635;-58
2023/03/27 05:12:55;;;;;;;;;;;18.40;34.40;;;;;;1538142;77;1184;-58
2023/03/27 05:14:57;;;;;;;;;;;18.40;34.50;;;;;;1545485;77;798;-60
2023/03/27 05:16:59;;;;;;;;;;;18.40;34.50;;;;;;1536920;77;1479;-59
2023/03/27 05:19:04;;;;;;;;;;;18.40;34.50;;;;;;1543296;77;690;-57
2023/03/27 05:21:06;;;;;;;;;;;18.40;34.40;;;;;;1544170;77;783;-59
2023/03/27 05:23:08;;;;;;;;;;;18.40;34.40;;;;;;1537708;77;1951;-59
2023/03/27 05:25:10;;;;;;;;;;;18.50;34.60;;;;;;1536680;77;765;-58
2023/03/27 05:27:14;;;;;;;;;;;18.50;34.50;;;;;;1546072;77;741;-58
2023/03/27 05:29:15;;;;;;;;;;;18.60;34.30;;;;;;1534240;77;1580;-60
2023/03/27 05:31:18;;;;;;;;;;;18.60;34.20;;;;;;1539039;77;764;-59
2023/03/27 05:33:19;;;;;;;;;;;18.70;34.20;;;;;;1529978;77;1187;-60
2023/03/27 05:35:22;;;;;;;;;;;18.60;34.20;;;;;;1542593;77;787;-61
2023/03/27 05:37:24;;;;;;;;;;;18.60;34.20;;;;;;1539323;77;714;-59
2023/03/27 05:39:27;;;;;;;;;;;18.60;34.00;;;;;;1537678;77;772;-58
2023/03/27 05:41:29;;;;;;;;;;;18.50;34.00;;;;;;1538157;77;1924;-59
2023/03/27 05:43:31;;;;;;;;;;;18.50;34.10;;;;;;1537999;77;1575;-58
2023/03/27 05:45:33;;;;;;;;;;;18.60;33.90;;;;;;1541024;77;753;-57
2023/03/27 05:47:45;;;;;;;;;;;18.50;33.90;;;;;;1532893;77;752;-60
2023/03/27 05:49:47;;;;;;;;;;;18.60;33.90;;;;;;1546482;77;806;-59
2023/03/27 05:51:49;;;;;;;;;;;18.50;33.90;;;;;;1545048;77;807;-59
2023/03/27 05:53:51;;;;;;;;;;;18.50;34.00;;;;;;1539866;77;1139;-60
2023/03/27 05:55:53;;;;;;;;;;;18.60;34.00;;;;;;1536781;77;774;-59
2023/03/27 05:57:55;;;;;;;;;;;18.60;33.90;;;;;;1540213;77;1340;-59
2023/03/27 05:59:57;;;;;;;;;;;18.40;33.60;;;;;;1546402;77;766;-59
2023/03/27 06:01:59;;;;;;;;;;;18.70;33.90;;;;;;1533827;77;1907;-58
2023/03/27 06:04:01;;;;;;;;;;;18.60;33.40;;;;;;1543670;77;1139;-57
2023/03/27 06:06:07;;;;;;;;;;;18.50;33.80;;;;;;1543431;77;799;-59
2023/03/27 06:08:13;;;;;;;;;;;18.50;33.80;;;;;;1538920;77;1049;-58
2023/03/27 06:10:13;;;;;;;;;;;18.60;33.80;;;;;;1547112;77;1267;-59
2023/03/27 06:12:16;;;;;;;;;;;18.60;33.50;;;;;;1542669;77;1580;-58
2023/03/27 06:14:18;;;;;;;;;;;18.50;33.60;;;;;;1543569;77;721;-58
2023/03/27 06:16:20;;;;;;;;;;;18.50;33.50;;;;;;1539319;77;616;-57
2023/03/27 06:18:22;;;;;;;;;;;18.40;33.30;;;;;;1538669;77;657;-58
2023/03/27 06:20:24;;;;;;;;;;;18.50;33.80;;;;;;1538313;77;746;-57
2023/03/27 06:22:26;;;;;;;;;;;18.50;33.50;;;;;;1544009;77;1912;-57
2023/03/27 06:24:28;;;;;;;;;;;18.60;33.70;;;;;;1537393;77;723;-59
2023/03/27 06:26:30;;;;;;;;;;;18.60;33.60;;;;;;1534732;77;1497;-61
2023/03/27 06:28:31;;;;;;;;;;;18.70;33.60;;;;;;1541874;77;754;-59
2023/03/27 06:30:36;;;;;;;;;;;18.60;33.30;;;;;;1532521;77;790;-58
2023/03/27 06:32:37;;;;;;;;;;;18.60;33.20;;;;;;1543704;77;1623;-59
2023/03/27 06:34:39;;;;;;;;;;;18.60;33.40;;;;;;1509514;77;1034;-59
2023/03/27 06:36:41;;;;;;;;;;;18.60;32.80;;;;;;1543281;77;814;-63
2023/03/27 06:38:43;;;;;;;;;;;18.70;33.40;;;;;;1529680;77;955;-61
2023/03/27 06:40:45;;;;;;;;;;;18.80;33.40;;;;;;1531141;77;1375;-60
2023/03/27 06:43:02;;;;;;;;;;;18.80;33.40;;;;;;1518272;78;1942;-59
2023/03/27 06:45:05;;;;;;;;;;;18.80;33.30;;;;;;1539516;77;655;-59
2023/03/27 06:47:07;;;;;;;;;;;18.80;33.20;;;;;;1547933;77;646;-59
2023/03/27 06:49:09;;;;;;;;;;;18.70;33.00;;;;;;1546918;77;787;-59
2023/03/27 06:51:10;;;;;;;;;;;18.70;32.80;;;;;;1546309;77;702;-59
2023/03/27 06:53:15;;;;;;;;;;;18.70;33.10;;;;;;1530159;77;1158;-59
2023/03/27 06:55:16;;;;;;;;;;;18.70;33.10;;;;;;1540242;77;1691;-60
2023/03/27 06:57:18;;;;;;;;;;;18.60;32.90;;;;;;1545917;77;781;-59
2023/03/27 06:59:20;;;;;;;;;;;18.60;32.70;;;;;;1547391;77;710;-59
2023/03/27 07:01:22;;;;;;;;;;;18.40;32.80;;;;;;1543620;77;734;-59
2023/03/27 07:03:24;;;;;;;;;;;18.50;32.80;;;;;;1546902;77;1911;-59
2023/03/27 07:05:27;;;;;;;;;;;18.60;33.00;;;;;;1540527;77;802;-59
2023/03/27 07:07:29;;;;;;;;;;;18.50;32.80;;;;;;1541233;77;605;-61
2023/03/27 07:09:31;;;;;;;;;;;18.50;33.10;;;;;;1542304;77;1579;-59
2023/03/27 07:11:33;;;;;;;;;;;18.60;32.90;;;;;;1546507;77;696;-60
2023/03/27 07:13:36;;;;;;;;;;;18.50;33.00;;;;;;1537817;77;1146;-59
2023/03/27 07:15:38;;;;;;;;;;;18.50;32.90;;;;;;1547937;77;737;-59
2023/03/27 07:17:42;;;;;;;;;;;18.50;33.00;;;;;;1541584;77;708;-59
2023/03/27 07:19:43;;;;;;;;;;;18.50;32.80;;;;;;1548411;77;1728;-59
2023/03/27 07:21:45;;;;;;;;;;;18.60;32.90;;;;;;1543360;77;1620;-59
2023/03/27 07:23:47;;;;;;;;;;;18.50;32.80;;;;;;1537807;77;1921;-59
2023/03/27 07:25:50;;;;;;;;;;;18.50;32.90;;;;;;1545461;77;650;-60
2023/03/27 07:27:54;;;;;;;;;;;18.50;32.30;;;;;;1535264;77;755;-59
2023/03/27 07:29:58;;;;;;;;;;;18.40;32.70;;;;;;1541974;77;1680;-59
2023/03/27 07:31:59;;;;;;;;;;;18.50;33.00;;;;;;1546604;77;1686;-60
2023/03/27 07:34:01;;;;;;;;;;;18.50;33.00;;;;;;1529920;77;1179;-59
2023/03/27 07:36:05;;;;;;;;;;;18.50;32.90;;;;;;1537312;77;1523;-60
2023/03/27 07:38:08;;;;;;;;;;;18.50;32.80;;;;;;1544705;77;723;-59
2023/03/27 07:40:13;;;;;;;;;;;18.40;32.80;;;;;;1546238;77;619;-59
2023/03/27 07:42:15;;;;;;;;;;;18.40;32.70;;;;;;1543152;77;1907;-58
2023/03/27 07:44:17;;;;;;;;;;;18.40;32.70;;;;;;1533708;77;684;-60
2023/03/27 07:46:19;;;;;;;;;;;18.40;32.80;;;;;;1533061;77;673;-58
2023/03/27 07:48:21;;;;;;;;;;;18.40;32.80;;;;;;1533481;77;741;-59
2023/03/27 07:50:24;;;;;;;;;;;18.40;32.80;;;;;;1531269;77;1529;-58
2023/03/27 07:52:26;;;;;;;;;;;18.50;33.10;;;;;;1547480;77;1197;-59
2023/03/27 07:54:30;;;;;;;;;;;18.50;32.90;;;;;;1534175;77;748;-59
2023/03/27 07:56:35;;;;;;;;;;;18.50;32.60;;;;;;1530959;77;1640;-59
2023/03/27 07:58:35;;;;;;;;;;;18.40;32.80;;;;;;1544089;77;1231;-61
2023/03/27 08:00:37;;;;;;;;;;;18.40;32.80;;;;;;1540818;77;671;-59
2023/03/27 08:02:39;;;;;;;;;;;18.30;32.90;;;;;;1538658;77;1955;-59
2023/03/27 08:04:41;;;;;;;;;;;18.40;32.80;;;;;;1527288;77;1517;-59
2023/03/27 08:06:43;;;;;;;;;;;18.40;32.80;;;;;;1542456;77;922;-61
2023/03/27 08:08:45;;;;;;;;;;;18.30;32.90;;;;;;1548076;77;786;-59
2023/03/27 08:10:47;;;;;;;;;;;18.30;32.80;;;;;;1544198;77;772;-59
2023/03/27 08:12:49;;;;;;;;;;;18.40;32.90;;;;;;1544657;77;1181;-62
2023/03/27 08:14:53;;;;;;;;;;;18.40;32.80;;;;;;1541423;77;746;-58
2023/03/27 08:16:54;;;;;;;;;;;18.40;32.90;;;;;;1538226;77;1361;-59
2023/03/27 08:18:57;;;;;;;;;;;18.40;32.80;;;;;;1540559;77;1508;-61
2023/03/27 08:21:00;;;;;;;;;;;18.40;32.90;;;;;;1538286;77;683;-59
2023/03/27 08:23:03;;;;;;;;;;;18.40;32.80;;;;;;1541695;77;1929;-59
2023/03/27 08:25:05;;;;;;;;;;;18.40;32.60;;;;;;1540876;77;760;-59
2023/03/27 08:27:07;;;;;;;;;;;18.40;32.70;;;;;;1543400;77;691;-59
2023/03/27 08:29:09;;;;;;;;;;;18.50;32.80;;;;;;1540210;77;735;-59
2023/03/27 08:31:14;;;;;;;;;;;18.50;32.70;;;;;;1542374;77;691;-58
2023/03/27 08:33:18;;;;;;;;;;;18.50;32.80;;;;;;1533502;77;1453;-59
2023/03/27 08:35:19;;;;;;;;;;;18.40;32.60;;;;;;1538658;77;1661;-59
2023/03/27 08:37:21;;;;;;;;;;;18.40;32.60;;;;;;1540501;77;749;-58
2023/03/27 08:39:23;;;;;;;;;;;18.40;32.50;;;;;;1533292;77;822;-63
2023/03/27 08:41:26;;;;;;;;;;;18.50;32.80;;;;;;1534748;77;653;-59
2023/03/27 08:43:30;;;;;;;;;;;18.50;32.70;;;;;;1536845;77;1934;-59
2023/03/27 08:45:33;;;;;;;;;;;18.40;32.30;;;;;;1544742;77;701;-58
2023/03/27 08:47:37;;;;;;;;;;;18.50;32.70;;;;;;1536037;77;1951;-59
2023/03/27 08:49:41;;;;;;;;;;;18.50;32.70;;;;;;1536739;77;670;-59
2023/03/27 08:51:47;;;;;;;;;;;18.50;32.70;;;;;;1528843;77;647;-60
2023/03/27 08:53:51;;;;;;;;;;;18.60;32.60;;;;;;1543099;77;1141;-60
2023/03/27 08:55:53;;;;;;;;;;;18.50;32.20;;;;;;1540620;77;819;-59
2023/03/27 08:57:55;;;;;;;;;;;18.50;32.30;;;;;;1533005;77;835;-59
2023/03/27 08:59:58;;;;;;;;;;;18.40;32.50;;;;;;1545110;77;727;-58
2023/03/27 09:02:04;;;;;;;;;;;18.40;32.30;;;;;;1541179;77;1434;-60
2023/03/27 09:04:14;;;;;;;;;;;18.30;32.50;;;;;;1545277;77;1939;-61
2023/03/27 09:06:18;;;;;;;;;;;18.30;32.70;;;;;;1542736;77;2167;-61
2023/03/27 09:08:28;;;;;;;;;;;18.30;32.80;;;;;;1542014;77;2040;-58
2023/03/27 09:10:43;;;;;;;;;;;18.30;32.70;;;;;;1530757;77;1772;-62
2023/03/27 09:12:47;;;;;;;;;;;18.40;32.50;;;;;;1533255;77;1277;-60
2023/03/27 09:14:50;;;;;;;;;;;18.40;32.70;;;;;;1535853;77;1472;-59
2023/03/27 09:16:52;;;;;;;;;;;18.30;32.70;;;;;;1524746;77;1892;-59
2023/03/27 09:19:02;;;;;;;;;;;18.40;32.60;;;;;;1532368;77;691;-61
2023/03/27 09:21:08;;;;;;;;;;;18.40;32.70;;;;;;1531265;77;678;-59
2023/03/27 09:23:12;;;;;;;;;;;18.40;32.60;;;;;;1534501;77;1944;-59
2023/03/27 09:25:22;;;;;;;;;;;18.40;32.60;;;;;;1544396;77;1868;-59
2023/03/27 09:27:25;;;;;;;;;;;18.30;32.60;;;;;;1534279;77;1887;-60
2023/03/27 09:29:30;;;;;;;;;;;18.30;32.50;;;;;;1536571;77;1540;-60
2023/03/27 09:31:32;;;;;;;;;;;18.30;32.60;;;;;;1537054;77;1188;-60
2023/03/27 09:33:40;;;;;;;;;;;18.30;32.70;;;;;;1547407;77;1149;-60
2023/03/27 09:35:37;;;;;;;;;;;18.30;32.80;;;;;;1545066;77;1567;-62
2023/03/27 09:37:40;;;;;;;;;;;18.40;32.80;;;;;;1527271;77;731;-60
2023/03/27 09:39:43;;;;;;;;;;;18.40;32.70;;;;;;1525314;77;664;-60
2023/03/27 09:41:47;;;;;;;;;;;18.40;32.60;;;;;;1537034;77;667;-61
2023/03/27 09:43:53;;;;;;;;;;;18.50;32.70;;;;;;1540408;77;2127;-60
2023/03/27 09:45:55;;;;;;;;;;;18.40;32.50;;;;;;1547151;77;604;-61
2023/03/27 09:48:00;;;;;;;;;;;18.40;32.50;;;;;;1542151;77;723;-62
2023/03/27 09:50:20;;;;;;;;;;;18.40;32.60;;;;;;1544267;77;1804;-60
2023/03/27 09:52:42;;;;;;;;;;;18.40;32.50;;;;;;1540164;77;1204;-62
2023/03/27 09:54:53;;;;;;;;;;;18.30;32.60;;;;;;1533992;77;732;-61
2023/03/27 09:57:09;;;;;;;;;;;18.40;32.50;;;;;;1535879;77;1583;-60
2023/03/27 09:59:13;;;;;;;;;;;18.30;32.60;;;;;;1546421;77;716;-60
2023/03/27 10:01:28;;;;;;;;;;;18.40;32.50;;;;;;1528823;77;1709;-60
2023/03/27 10:03:32;;;;;;;;;;;18.30;32.50;;;;;;1541979;77;1925;-60
2023/03/27 10:05:34;;;;;;;;;;;18.30;32.60;;;;;;1534869;77;748;-60
2023/03/27 10:07:38;;;;;;;;;;;18.30;32.70;;;;;;1531461;77;826;-60
2023/03/27 10:09:40;;;;;;;;;;;18.30;32.50;;;;;;1537517;77;575;-60
2023/03/27 10:11:42;;;;;;;;;;;18.30;32.60;;;;;;1536826;77;1527;-61
2023/03/27 10:13:45;;;;;;;;;;;18.20;32.30;;;;;;1543333;77;1173;-61
2023/03/27 10:15:47;;;;;;;;;;;18.20;32.40;;;;;;1547505;77;728;-61
2023/03/27 10:17:49;;;;;;;;;;;18.20;32.60;;;;;;1530699;77;676;-60
2023/03/27 10:19:53;;;;;;;;;;;18.30;32.70;;;;;;1532376;77;751;-59
2023/03/27 10:21:55;;;;;;;;;;;18.30;32.60;;;;;;1536238;77;1696;-62
2023/03/27 10:24:01;;;;;;;;;;;18.40;32.60;;;;;;1542184;77;1937;-63
2023/03/27 10:26:04;;;;;;;;;;;18.30;32.50;;;;;;1537603;77;1519;-59
2023/03/27 10:28:07;;;;;;;;;;;18.40;32.40;;;;;;1542481;75;1108;-60
2023/03/27 10:30:24;;;;;;;;;;;18.40;32.30;;;;;;1529992;77;724;-62
2023/03/27 10:32:28;;;;;;;;;;;18.40;32.30;;;;;;1526903;77;1151;-60
2023/03/27 10:34:37;;;;;;;;;;;18.40;32.20;;;;;;1528741;77;1503;-60
2023/03/27 10:36:39;;;;;;;;;;;18.30;32.20;;;;;;1534446;77;813;-60
2023/03/27 10:38:41;;;;;;;;;;;18.30;32.30;;;;;;1539943;77;1501;-60
2023/03/27 10:40:49;;;;;;;;;;;18.30;32.40;;;;;;1547342;77;589;-63
2023/03/27 10:42:51;;;;;;;;;;;18.30;32.30;;;;;;1531137;77;1210;-60
2023/03/27 10:44:55;;;;;;;;;;;18.30;32.50;;;;;;1542674;77;1928;-61
2023/03/27 10:46:56;;;;;;;;;;;18.30;32.40;;;;;;1531471;77;665;-60
2023/03/27 10:49:12;;;;;;;;;;;18.40;32.30;;;;;;1542146;77;728;-62
2023/03/27 10:51:19;;;;;;;;;;;18.30;32.30;;;;;;1537737;77;2075;-60
2023/03/27 10:53:22;;;;;;;;;;;18.30;32.40;;;;;;1531136;77;1945;-62
2023/03/27 10:55:31;;;;;;;;;;;18.30;32.50;;;;;;1543231;77;779;-60
2023/03/27 10:57:33;;;;;;;;;;;18.30;32.60;;;;;;1538507;77;763;-61
2023/03/27 10:59:37;;;;;;;;;;;18.30;32.30;;;;;;1540808;77;730;-62
2023/03/27 11:01:40;;;;;;;;;;;18.40;32.30;;;;;;1537929;77;619;-62
2023/03/27 11:03:44;;;;;;;;;;;18.40;32.30;;;;;;1544900;77;1931;-62
2023/03/27 11:05:47;;;;;;;;;;;18.30;32.40;;;;;;1541316;77;1756;-62
2023/03/27 11:07:51;;;;;;;;;;;18.30;32.40;;;;;;1531179;77;1470;-60
2023/03/27 11:09:55;;;;;;;;;;;18.50;32.50;;;;;;1546666;77;2044;-60
2023/03/27 11:12:04;;;;;;;;;;;18.40;32.30;;;;;;1527086;77;1677;-62
2023/03/27 11:14:07;;;;;;;;;;;18.40;32.30;;;;;;1533250;77;1110;-60
2023/03/27 11:16:14;;;;;;;;;;;18.50;32.30;;;;;;1534635;77;1494;-61
2023/03/27 11:18:17;;;;;;;;;;;18.40;32.30;;;;;;1528368;77;666;-63
2023/03/27 11:20:23;;;;;;;;;;;18.40;32.30;;;;;;1527250;77;727;-61
2023/03/27 11:22:33;;;;;;;;;;;18.40;32.30;;;;;;1541257;77;1397;-63
2023/03/27 11:24:39;;;;;;;;;;;18.50;32.30;;;;;;1530286;77;1933;-59
2023/03/27 11:26:44;;;;;;;;;;;18.50;32.40;;;;;;1546966;77;754;-60
2023/03/27 11:28:50;;;;;;;;;;;18.50;32.40;;;;;;1539359;77;1870;-60
2023/03/27 11:30:54;;;;;;;;;;;18.50;32.30;;;;;;1546712;77;1617;-60
2023/03/27 11:33:14;;;;;;;;;;;18.40;32.20;;;;;;1535063;77;1796;-60
2023/03/27 11:35:22;;;;;;;;;;;18.40;32.20;;;;;;1543419;77;1351;-62
2023/03/27 11:37:26;;;;;;;;;;;18.40;32.10;;;;;;1541392;77;808;-62
2023/03/27 11:39:32;;;;;;;;;;;18.50;32.40;;;;;;1510050;77;1654;-59
2023/03/27 11:41:33;;;;;;;;;;;18.50;32.20;;;;;;1520809;77;805;-60
2023/03/27 11:43:36;;;;;;;;;;;18.40;32.10;;;;;;1526117;76;1921;-60
2023/03/27 11:45:54;;;;;;;;;;;18.30;31.40;;;;;;1520691;77;815;-60
2023/03/27 11:48:01;;;;;;;;;;;18.40;32.20;;;;;;1529662;77;785;-60
2023/03/27 11:50:07;;;;;;;;;;;18.40;32.20;;;;;;1530876;77;1442;-59
2023/03/27 11:52:28;;;;;;;;;;;18.30;31.90;;;;;;1528915;77;898;-60
2023/03/27 11:54:31;;;;;;;;;;;18.30;32.00;;;;;;1516222;77;720;-60
2023/03/27 11:56:36;;;;;;;;;;;18.20;32.20;;;;;;1529933;77;2292;-59
2023/03/27 11:58:58;;;;;;;;;;;18.20;32.30;;;;;;1524536;77;960;-60
2023/03/27 12:01:18;;;;;;;;;;;18.30;32.20;;;;;;1517774;77;2192;-60
2023/03/27 12:03:27;;;;;;;;;;;18.30;32.30;;;;;;1517799;77;1382;-60
2023/03/27 12:05:42;;;;;;;;;;;18.40;32.00;;;;;;1524373;77;1908;-60
2023/03/27 12:07:54;;;;;;;;;;;18.30;32.10;;;;;;1525116;77;1974;-60
2023/03/27 12:10:16;;;;;;;;;;;18.30;31.90;;;;;;1515915;77;1672;-60
2023/03/27 12:12:36;;;;;;;;;;;18.30;32.20;;;;;;1516937;77;1190;-60
2023/03/27 12:14:40;;;;;;;;;;;18.30;32.20;;;;;;1515547;77;787;-59
2023/03/27 12:16:49;;;;;;;;;;;18.30;32.00;;;;;;1521026;77;900;-60
2023/03/27 12:19:05;;;;;;;;;;;18.30;31.90;;;;;;1515421;77;2078;-60